Time;durP1;ratioP1;P1;durP2;ratioP2;P2;SDS_P1;SDS_P2;PMS_P1;PMS_P2;Temp;Humidity;BMP_temperature;BMP_pressure;BME280_temperature;BME280_humidity;BME280_pressure;Samples;Min_cycle;Max_cycle;Signal;HPM_P1;HPM_P2
2023/01/06 00:01:31;;;;;;;14.67;10.50;;;;;;;11.47;54.67;99694.16;5113667;28;20194;-56
2023/01/06 00:03:58;;;;;;;16.03;10.53;;;;;;;11.44;54.82;99700.13;5113605;28;20189;-55
2023/01/06 00:06:27;;;;;;;13.67;9.90;;;;;;;11.47;54.96;99704.47;5113429;28;20276;-56
2023/01/06 00:08:54;;;;;;;14.10;10.47;;;;;;;11.49;55.12;99716.50;5114184;28;20194;-56
2023/01/06 00:11:22;;;;;;;12.63;9.73;;;;;;;11.50;54.79;99717.38;5113278;28;20186;-55
2023/01/06 00:13:48;;;;;;;13.47;10.27;;;;;;;11.46;55.07;99721.59;5100795;28;20226;-56
2023/01/06 00:16:18;;;;;;;11.77;9.47;;;;;;;11.45;54.78;99717.31;5093016;28;20194;-55
2023/01/06 00:18:46;;;;;;;12.00;9.90;;;;;;;11.49;53.48;99729.38;5104688;28;20198;-55
2023/01/06 00:21:14;;;;;;;11.87;9.40;;;;;;;11.49;53.31;99724.22;5113215;28;20201;-55
2023/01/06 00:23:42;;;;;;;11.33;10.10;;;;;;;11.44;53.64;99736.16;5113208;28;20190;-55
2023/01/06 00:26:10;;;;;;;13.27;10.73;;;;;;;11.09;54.40;99685.84;5112480;28;20431;-56
2023/01/06 00:28:36;;;;;;;10.70;9.60;;;;;;;11.42;54.29;99736.97;5113131;28;20218;-56
2023/01/06 00:31:08;;;;;;;10.30;9.13;;;;;;;11.50;53.22;99733.69;5113176;28;20243;-56
2023/01/06 00:33:34;;;;;;;12.13;10.10;;;;;;;11.44;53.18;99720.72;5112963;28;20202;-56
2023/01/06 00:36:03;;;;;;;11.73;9.97;;;;;;;11.48;53.80;99734.50;5112799;28;20259;-56
2023/01/06 00:38:30;;;;;;;10.67;9.27;;;;;;;11.57;52.92;99742.34;5113464;28;20194;-55
2023/01/06 00:40:57;;;;;;;12.20;10.10;;;;;;;11.53;53.35;99748.31;5112733;28;20186;-55
2023/01/06 00:43:24;;;;;;;10.83;9.13;;;;;;;11.57;52.97;99742.34;5112553;28;20231;-55
2023/01/06 00:45:51;;;;;;;10.63;8.93;;;;;;;11.57;52.69;99744.94;5112543;28;20186;-55
2023/01/06 00:48:18;;;;;;;16.50;9.33;;;;;;;11.58;53.04;99755.25;5112630;28;20680;-55
2023/01/06 00:50:44;;;;;;;14.27;9.47;;;;;;;11.60;52.73;99742.41;5112859;28;20182;-56
2023/01/06 00:53:12;;;;;;;12.10;9.07;;;;;;;11.61;52.66;99749.28;5112585;28;20201;-56
2023/01/06 00:55:39;;;;;;;10.90;8.90;;;;;;;11.62;52.24;99753.63;5113173;28;20216;-56
2023/01/06 00:58:06;;;;;;;13.43;8.40;;;;;;;11.67;52.31;99759.69;5113033;28;20299;-56
2023/01/06 01:00:33;;;;;;;11.47;9.13;;;;;;;11.60;52.51;99758.72;5112594;28;20186;-56
2023/01/06 01:02:59;;;;;;;9.83;8.20;;;;;;;11.56;52.78;99763.81;5112554;28;20186;-56
2023/01/06 01:05:26;;;;;;;11.73;9.13;;;;;;;11.60;52.24;99775.88;5112680;28;20192;-55
2023/01/06 01:07:53;;;;;;;11.47;8.37;;;;;;;11.51;52.58;99755.16;5112378;28;20292;-56
2023/01/06 01:10:21;;;;;;;11.40;8.80;;;;;;;11.66;52.17;99773.41;5112335;28;20201;-55
2023/01/06 01:12:48;;;;;;;9.97;7.63;;;;;;;11.66;52.54;99765.66;5112581;28;20197;-55
2023/01/06 01:15:15;;;;;;;12.17;8.77;;;;;;;11.70;52.09;99770.06;5112480;28;20194;-56
2023/01/06 01:17:42;;;;;;;10.23;8.20;;;;;;;11.66;52.32;99769.13;5112430;28;20198;-55
2023/01/06 01:20:09;;;;;;;9.63;8.63;;;;;;;11.74;51.70;99766.69;5112285;28;20190;-55
2023/01/06 01:22:36;;;;;;;10.03;7.80;;;;;;;11.74;51.87;99772.72;5112486;28;20182;-55
2023/01/06 01:25:03;;;;;;;10.47;8.17;;;;;;;11.76;51.89;99770.16;5112495;28;20188;-55
2023/01/06 01:27:31;;;;;;;10.33;7.93;;;;;;;11.75;51.95;99774.47;5112266;28;20569;-55
2023/01/06 01:29:58;;;;;;;9.70;8.40;;;;;;;11.69;52.15;99763.19;5112410;28;20207;-56
2023/01/06 01:32:25;;;;;;;9.70;8.40;;;;;;;11.67;52.42;99770.00;5112117;28;20243;-55
2023/01/06 01:34:52;;;;;;;8.80;7.90;;;;;;;11.56;52.33;99756.09;5112385;28;20197;-55
2023/01/06 01:37:18;;;;;;;12.40;8.37;;;;;;;11.56;52.57;99758.66;5112233;28;20561;-57
2023/01/06 01:39:46;;;;;;;12.43;8.70;;;;;;;11.69;52.39;99784.66;5112249;28;20186;-56
2023/01/06 01:42:16;;;;;;;11.07;8.17;;;;;;;11.77;52.11;99777.03;5112355;28;20186;-56
2023/01/06 01:44:58;;;;;;;11.93;7.63;;;;;;;11.80;51.89;99769.38;5112238;28;20190;-55
2023/01/06 01:47:34;;;;;;;11.03;8.30;;;;;;;11.66;52.26;99748.53;5112859;28;20229;-55
2023/01/06 01:50:05;;;;;;;44.47;10.40;;;;;;;11.89;52.47;99772.09;5112245;28;20548;-55
2023/01/06 01:52:33;;;;;;;9.33;6.97;;;;;;;11.87;52.42;99771.19;5112621;28;20580;-56
2023/01/06 01:55:01;;;;;;;9.23;7.70;;;;;;;11.91;52.48;99756.66;5112269;28;20190;-56
2023/01/06 01:57:34;;;;;;;11.40;8.27;;;;;;;11.88;52.98;99760.06;5115288;28;20229;-56
2023/01/06 02:00:04;;;;;;;9.27;7.20;;;;;;;11.92;53.16;99742.94;5115931;28;20186;-56
2023/01/06 02:02:32;;;;;;;11.13;8.27;;;;;;;11.99;53.01;99740.47;5115771;28;20183;-56
2023/01/06 02:05:00;;;;;;;9.23;7.73;;;;;;;11.98;53.87;99750.75;5115859;28;20669;-56
2023/01/06 02:07:28;;;;;;;10.10;7.63;;;;;;;11.92;54.23;99736.06;5116053;28;20275;-55
2023/01/06 02:10:02;;;;;;;8.57;7.60;;;;;;;11.95;54.84;99746.41;5115758;28;20190;-55
2023/01/06 02:12:30;;;;;;;9.97;7.63;;;;;;;11.91;55.58;99747.22;5115454;28;20201;-55
2023/01/06 02:14:57;;;;;;;9.10;7.67;;;;;;;11.95;55.31;99754.13;5116275;28;20263;-56
2023/01/06 02:17:44;;;;;;;10.30;7.43;;;;;;;11.91;55.38;99742.09;5115981;28;20216;-55
2023/01/06 02:20:26;;;;;;;9.50;8.60;;;;;;;11.96;55.74;99739.56;5114945;28;20430;-55
2023/01/06 02:23:21;;;;;;;8.33;6.93;;;;;;;12.05;55.24;99753.44;5116033;28;20440;-56
2023/01/06 02:26:22;;;;;;;11.87;7.40;;;;;;;12.03;55.41;99752.53;5104873;28;20186;-56
2023/01/06 02:29:10;;;;;;;12.73;7.73;;;;;;;11.95;55.32;99720.66;5115936;28;20210;-56
2023/01/06 02:31:49;;;;;;;12.87;7.20;;;;;;;12.03;55.23;99731.94;5115664;28;20182;-56
2023/01/06 02:34:24;;;;;;;8.53;7.43;;;;;;;12.11;54.30;99727.78;5115678;28;20186;-56
2023/01/06 02:37:02;;;;;;;8.87;7.57;;;;;;;12.22;53.87;99721.03;5115372;28;20194;-56
2023/01/06 02:39:38;;;;;;;9.43;6.80;;;;;;;12.26;53.45;99706.50;5115163;28;20190;-56
2023/01/06 02:42:15;;;;;;;8.93;6.70;;;;;;;12.10;53.35;99682.25;5115162;28;20201;-56
2023/01/06 02:44:49;;;;;;;11.27;6.90;;;;;;;12.35;52.86;99699.75;5115558;28;20190;-56
2023/01/06 02:47:20;;;;;;;7.87;6.00;;;;;;;12.39;52.78;99719.56;5115299;28;20217;-56
2023/01/06 02:49:57;;;;;;;8.63;6.63;;;;;;;12.43;52.54;99705.88;5115430;28;20186;-56
2023/01/06 02:52:35;;;;;;;7.93;6.60;;;;;;;12.50;52.40;99711.09;5114937;28;20654;-56
2023/01/06 02:55:07;;;;;;;10.32;6.88;;;;;;;12.53;52.63;99708.53;5115035;28;20435;-56
2023/01/06 02:57:41;;;;;;;10.23;6.73;;;;;;;12.51;52.43;99702.50;5115173;28;20226;-56
2023/01/06 03:00:14;;;;;;;8.47;6.03;;;;;;;12.57;52.50;99690.56;5114911;28;20680;-56
2023/01/06 03:02:47;;;;;;;7.20;5.83;;;;;;;12.56;52.53;99687.97;5115393;28;20266;-56
2023/01/06 03:05:17;;;;;;;8.30;5.70;;;;;;;12.61;52.18;99692.31;5114879;28;20193;-56
2023/01/06 03:07:47;;;;;;;6.23;5.57;;;;;;;12.65;52.31;99690.66;5114337;28;20297;-56
2023/01/06 03:10:17;;;;;;;14.87;5.70;;;;;;;12.60;52.22;99698.34;5114474;28;20182;-55
2023/01/06 03:12:51;;;;;;;6.33;5.27;;;;;;;12.60;52.14;99648.50;5114883;28;20202;-56
2023/01/06 03:15:18;;;;;;;7.80;5.50;;;;;;;12.75;51.66;99661.53;5114750;28;20186;-56
2023/01/06 03:17:46;;;;;;;6.60;5.07;;;;;;;12.76;51.47;99647.81;5114388;28;20251;-56
2023/01/06 03:20:14;;;;;;;6.83;6.03;;;;;;;12.59;51.24;99621.84;5114643;28;20615;-55
2023/01/06 03:22:41;;;;;;;7.30;5.43;;;;;;;12.74;51.23;99657.25;5114588;28;20186;-55
2023/01/06 03:25:09;;;;;;;6.30;5.40;;;;;;;12.72;51.08;99656.34;5114271;28;20592;-55
2023/01/06 03:27:36;;;;;;;6.90;5.60;;;;;;;12.71;50.59;99665.81;5114052;28;20666;-56
2023/01/06 03:30:07;;;;;;;8.57;6.13;;;;;;;12.62;50.72;99663.13;5113856;28;20438;-56
2023/01/06 03:32:41;;;;;;;7.23;5.60;;;;;;;12.62;50.98;99657.97;5114341;28;20195;-56
2023/01/06 03:35:24;;;;;;;6.17;5.10;;;;;;;12.53;51.23;99655.28;5114438;28;20182;-56
2023/01/06 03:37:59;;;;;;;7.60;5.77;;;;;;;12.39;51.48;99651.69;5114962;28;20202;-55
2023/01/06 03:40:32;;;;;;;7.07;5.53;;;;;;;12.43;50.86;99645.75;5114000;28;20720;-56
2023/01/06 03:43:15;;;;;;;8.77;6.07;;;;;;;12.34;51.63;99648.19;5114259;28;20186;-56
2023/01/06 03:45:55;;;;;;;7.17;6.03;;;;;;;12.38;51.86;99663.72;5114158;28;20192;-55
2023/01/06 03:48:33;;;;;;;7.87;5.77;;;;;;;12.31;52.16;99637.84;5111885;28;20249;-55
2023/01/06 03:51:15;;;;;;;7.97;5.77;;;;;;;12.35;52.44;99643.09;5093764;28;20252;-56
2023/01/06 03:53:50;;;;;;;8.50;5.70;;;;;;;12.31;52.23;99649.03;5093851;28;20585;-55
2023/01/06 03:56:23;;;;;;;6.50;5.07;;;;;;;12.32;52.46;99666.22;5093411;28;20279;-56
2023/01/06 03:58:54;;;;;;;9.02;6.70;;;;;;;12.38;52.07;99670.59;5092261;28;20440;-56
2023/01/06 04:01:23;;;;;;;6.80;6.10;;;;;;;12.34;52.55;99664.53;5093243;28;20702;-56
2023/01/06 04:03:52;;;;;;;9.27;6.20;;;;;;;12.28;52.86;99672.19;5093163;28;20646;-56
2023/01/06 04:06:21;;;;;;;8.88;6.20;;;;;;;12.25;53.21;99692.75;5092636;28;20804;-55
2023/01/06 04:08:47;;;;;;;8.97;7.20;;;;;;;12.19;53.50;99694.41;5093073;28;20594;-55
2023/01/06 04:13:55;;;;;;;8.43;6.13;;;;;;;12.01;54.91;99712.16;5091976;28;20225;-55
2023/01/06 04:16:22;;;;;;;7.73;5.53;;;;;;;12.01;56.02;99718.19;5092895;28;20194;-56
2023/01/06 04:18:49;;;;;;;7.60;6.23;;;;;;;11.98;56.12;99719.84;5091977;28;20194;-56
2023/01/06 04:21:15;;;;;;;9.43;6.37;;;;;;;11.88;56.70;99718.84;5092907;28;20573;-56
2023/01/06 04:23:44;;;;;;;6.03;5.43;;;;;;;11.75;57.43;99712.69;5092760;28;20190;-56
2023/01/06 04:26:10;;;;;;;6.63;5.17;;;;;;;11.76;58.19;99713.53;5092657;28;20195;-56
2023/01/06 04:28:37;;;;;;;6.67;5.27;;;;;;;11.79;58.08;99717.00;5093016;28;20222;-55
2023/01/06 04:31:04;;;;;;;10.23;5.43;;;;;;;11.76;58.74;99708.38;5092572;28;20676;-55
2023/01/06 04:33:31;;;;;;;18.00;4.87;;;;;;;11.72;58.97;99734.94;5092555;28;20657;-55
2023/01/06 04:35:58;;;;;;;7.83;5.13;;;;;;;11.60;58.69;99712.41;5092646;28;20671;-56
2023/01/06 04:38:24;;;;;;;8.80;5.10;;;;;;;11.70;59.00;99731.47;5092357;28;20202;-55
2023/01/06 04:40:53;;;;;;;9.20;4.80;;;;;;;11.64;58.83;99739.94;5092397;28;20195;-55
2023/01/06 04:43:19;;;;;;;7.80;5.47;;;;;;;11.66;58.81;99757.94;5092363;28;20203;-56
2023/01/06 04:45:47;;;;;;;6.97;4.50;;;;;;;11.74;57.86;99756.41;5092421;28;20675;-56
2023/01/06 04:48:14;;;;;;;9.47;4.60;;;;;;;11.79;57.57;99757.34;5092519;28;20593;-55
2023/01/06 04:50:41;;;;;;;5.83;4.20;;;;;;;11.85;56.92;99752.28;5092330;28;20252;-56
2023/01/06 04:53:11;;;;;;;14.67;4.23;;;;;;;11.88;57.23;99761.75;5092404;28;20187;-55
2023/01/06 04:55:38;;;;;;;9.87;4.90;;;;;;;11.90;56.47;99758.34;5092546;28;20187;-55
2023/01/06 04:58:06;;;;;;;10.10;5.03;;;;;;;11.90;56.58;99760.94;5092424;28;20276;-55
2023/01/06 05:00:33;;;;;;;9.50;5.47;;;;;;;11.90;56.21;99776.38;5092324;28;20187;-55
2023/01/06 05:03:00;;;;;;;6.10;5.17;;;;;;;11.78;56.49;99759.03;5092201;28;20187;-56
2023/01/06 05:05:27;;;;;;;12.67;4.63;;;;;;;11.80;56.91;99782.25;5092326;28;20187;-56
2023/01/06 05:07:54;;;;;;;25.13;5.30;;;;;;;11.80;56.76;99810.56;5091919;28;20379;-55
2023/01/06 05:10:20;;;;;;;9.13;3.77;;;;;;;11.80;56.68;99792.53;5091908;28;20241;-55
2023/01/06 05:12:47;;;;;;;6.43;4.40;;;;;;;11.86;56.34;99800.38;5091850;28;20191;-56
2023/01/06 05:15:15;;;;;;;8.23;4.00;;;;;;;11.84;56.97;99814.91;5092190;28;20183;-55
2023/01/06 05:17:42;;;;;;;11.23;4.78;;;;;;;11.78;56.87;99825.13;5090796;28;20489;-56
2023/01/06 05:20:10;;;;;;;4.50;4.10;;;;;;;11.77;56.92;99803.66;5092057;28;20558;-57
2023/01/06 05:22:37;;;;;;;6.03;4.37;;;;;;;11.75;56.98;99802.78;5091748;28;20654;-56
2023/01/06 05:25:04;;;;;;;5.70;4.67;;;;;;;11.72;57.11;99795.00;5091889;28;20194;-56
2023/01/06 05:27:31;;;;;;;5.57;4.17;;;;;;;11.72;56.91;99820.75;5092202;28;20183;-55
2023/01/06 05:29:58;;;;;;;5.30;3.97;;;;;;;11.66;57.07;99814.56;5092242;28;20214;-57
2023/01/06 05:32:26;;;;;;;5.17;4.20;;;;;;;11.61;56.99;99821.34;5096073;28;20203;-56
2023/01/06 05:34:52;;;;;;;5.10;4.20;;;;;;;11.63;56.99;99824.81;5095813;28;20191;-56
2023/01/06 05:37:19;;;;;;;9.57;3.70;;;;;;;11.59;57.40;99838.50;5095799;28;20294;-56
2023/01/06 05:39:46;;;;;;;4.80;3.80;;;;;;;11.54;57.12;99830.66;5095956;28;20681;-56
2023/01/06 05:42:15;;;;;;;3.93;3.53;;;;;;;11.51;56.92;99846.03;5100462;28;20201;-56
2023/01/06 05:44:42;;;;;;;7.10;4.43;;;;;;;11.54;57.01;99858.09;5098675;28;20451;-56
2023/01/06 05:47:09;;;;;;;6.80;4.47;;;;;;;11.52;56.99;99875.22;5095613;28;20565;-57
2023/01/06 05:49:37;;;;;;;4.77;3.83;;;;;;;11.48;57.21;99876.03;5095556;28;20211;-57
2023/01/06 05:52:04;;;;;;;4.07;3.67;;;;;;;11.50;57.28;99894.94;5111023;28;20198;-57
2023/01/06 05:54:30;;;;;;;5.10;4.07;;;;;;;11.52;56.61;99896.69;5116141;28;20202;-57
2023/01/06 05:56:57;;;;;;;5.10;4.07;;;;;;;11.51;57.01;99905.22;5114604;28;20285;-56
2023/01/06 05:59:24;;;;;;;4.33;3.63;;;;;;;11.51;56.81;99912.13;5113325;28;20615;-56
2023/01/06 06:01:50;;;;;;;6.23;4.07;;;;;;;11.53;56.87;99903.56;5114273;28;20190;-57
2023/01/06 06:04:17;;;;;;;4.40;3.50;;;;;;;11.40;56.80;99877.59;5114189;28;20186;-56
2023/01/06 06:06:45;;;;;;;7.67;4.10;;;;;;;11.54;56.31;99907.00;5114614;28;20277;-57
2023/01/06 06:09:12;;;;;;;7.07;3.90;;;;;;;11.58;56.94;99919.97;5115491;28;20343;-56
2023/01/06 06:11:39;;;;;;;6.00;3.70;;;;;;;11.53;57.02;99923.28;5103102;28;20195;-57
2023/01/06 06:14:09;;;;;;;3.90;3.50;;;;;;;11.54;56.14;99923.31;5095188;28;20244;-57
2023/01/06 06:16:36;;;;;;;5.97;3.90;;;;;;;11.59;56.38;99926.81;5105678;28;20187;-57
2023/01/06 06:19:05;;;;;;;6.57;3.53;;;;;;;11.66;56.09;99922.69;5103874;28;20195;-57
2023/01/06 06:21:32;;;;;;;6.40;3.80;;;;;;;11.70;55.22;99927.94;5094622;28;20187;-56
2023/01/06 06:24:00;;;;;;;5.47;3.47;;;;;;;11.64;54.40;99908.91;5102395;28;20198;-56
2023/01/06 06:26:28;;;;;;;4.40;3.30;;;;;;;11.78;53.99;99920.38;5110779;28;20186;-57
2023/01/06 06:28:55;;;;;;;4.40;3.20;;;;;;;11.91;53.81;99935.19;5113843;28;20221;-57
2023/01/06 06:31:23;;;;;;;7.07;3.17;;;;;;;11.79;53.51;99892.06;5114924;28;20193;-57
2023/01/06 06:33:51;;;;;;;5.63;3.17;;;;;;;11.97;53.44;99940.47;5115148;28;20187;-57
2023/01/06 06:36:18;;;;;;;5.23;3.10;;;;;;;12.08;52.72;99935.50;5114978;28;20200;-56
2023/01/06 06:38:46;;;;;;;3.10;2.73;;;;;;;12.10;52.26;99929.53;5114818;28;20194;-56
2023/01/06 06:41:15;;;;;;;4.57;2.93;;;;;;;12.22;51.36;99937.44;5114405;28;20182;-56
2023/01/06 06:43:42;;;;;;;5.83;3.47;;;;;;;12.73;49.96;99949.41;5112719;28;20188;-57
2023/01/06 06:46:10;;;;;;;3.40;3.10;;;;;;;12.95;48.50;99920.50;5111832;28;20190;-57
2023/01/06 06:48:37;;;;;;;7.93;3.27;;;;;;;12.94;48.83;99944.56;5104447;28;20202;-57
2023/01/06 06:51:06;;;;;;;4.23;3.10;;;;;;;12.73;49.41;99957.16;5094430;28;20220;-57
2023/01/06 06:53:33;;;;;;;5.37;3.50;;;;;;;12.85;48.74;99957.34;5094147;28;20187;-57
2023/01/06 06:56:00;;;;;;;5.27;3.47;;;;;;;13.40;47.22;99959.84;5093802;28;20187;-56
2023/01/06 06:58:28;;;;;;;4.33;3.27;;;;;;;13.41;46.87;99961.56;5094224;28;20195;-56
2023/01/06 07:00:55;;;;;;;3.27;2.97;;;;;;;13.25;46.91;99958.78;5094685;28;20210;-55
2023/01/06 07:03:24;;;;;;;3.60;3.30;;;;;;;13.05;47.17;99971.38;5094050;28;20195;-57
2023/01/06 07:05:52;;;;;;;3.87;2.80;;;;;;;12.87;47.69;99951.34;5093937;28;20191;-56
2023/01/06 07:08:19;;;;;;;3.40;3.10;;;;;;;12.81;48.34;99971.03;5098907;28;20668;-56
2023/01/06 07:10:45;;;;;;;5.27;3.20;;;;;;;12.83;48.23;99974.47;5110934;28;20250;-56
2023/01/06 07:13:12;;;;;;;3.30;2.83;;;;;;;12.94;47.84;99973.81;5113692;28;20185;-57
2023/01/06 07:15:40;;;;;;;3.10;2.80;;;;;;;13.09;47.00;99969.75;5113613;28;20206;-56
2023/01/06 07:18:07;;;;;;;2.93;2.73;;;;;;;13.09;47.44;99967.16;5111518;28;20183;-56
2023/01/06 07:20:36;;;;;;;3.73;3.10;;;;;;;12.92;47.58;99954.88;5113598;28;20183;-57
2023/01/06 07:23:03;;;;;;;3.20;2.90;;;;;;;12.91;47.82;99960.03;5113480;28;20183;-56
2023/01/06 07:25:30;;;;;;;6.47;3.07;;;;;;;12.75;47.95;99927.97;5113341;28;20182;-56
2023/01/06 07:27:59;;;;;;;3.10;2.80;;;;;;;12.89;47.63;99949.66;5114061;27;20186;-56
2023/01/06 07:30:27;;;;;;;5.40;3.50;;;;;;;12.88;47.90;99936.75;5108489;28;20234;-57
2023/01/06 07:32:55;;;;;;;4.30;2.97;;;;;;;12.81;48.01;99951.25;5110531;28;20199;-56
2023/01/06 07:35:22;;;;;;;3.85;3.45;;;;;;;12.82;48.44;99952.13;5109117;28;20435;-57
2023/01/06 07:37:48;;;;;;;4.13;3.43;;;;;;;12.86;48.19;99943.59;5108916;28;20194;-56
2023/01/06 07:40:16;;;;;;;3.90;3.50;;;;;;;12.87;47.95;99951.34;5112258;28;20280;-57
2023/01/06 07:42:43;;;;;;;4.43;3.57;;;;;;;12.88;47.97;99963.38;5111802;28;20244;-56
2023/01/06 07:45:11;;;;;;;7.53;4.10;;;;;;;12.85;48.47;99957.34;5110936;28;20201;-56
2023/01/06 07:47:38;;;;;;;3.10;2.80;;;;;;;12.90;48.11;99961.72;5110940;28;20564;-56
2023/01/06 07:50:07;;;;;;;4.10;3.70;;;;;;;12.90;47.93;99961.72;5111649;28;20805;-57
2023/01/06 07:52:33;;;;;;;4.00;3.60;;;;;;;12.94;47.68;99962.59;5112298;28;20190;-57
2023/01/06 07:55:00;;;;;;;6.27;3.80;;;;;;;12.99;47.92;99968.72;5112324;28;20725;-57
2023/01/06 07:57:27;;;;;;;3.80;3.23;;;;;;;13.05;47.61;99973.09;5112433;28;20222;-57
2023/01/06 07:59:54;;;;;;;3.73;3.27;;;;;;;13.06;47.46;99975.69;5113076;28;20263;-56
2023/01/06 08:02:22;;;;;;;9.70;3.87;;;;;;;13.11;47.86;99981.81;5113167;28;20229;-56
2023/01/06 08:04:49;;;;;;;4.27;3.43;;;;;;;13.19;47.27;99982.78;5112914;28;20186;-56
2023/01/06 08:07:17;;;;;;;4.47;3.20;;;;;;;13.24;47.12;99988.88;5107181;28;20194;-56
2023/01/06 08:09:44;;;;;;;4.77;3.53;;;;;;;13.24;46.44;99993.19;5103734;28;20691;-56
2023/01/06 08:12:12;;;;;;;4.50;3.40;;;;;;;13.32;46.59;100012.22;5113507;28;20263;-56
2023/01/06 08:14:39;;;;;;;5.43;3.13;;;;;;;13.36;46.18;100016.56;5102724;28;20252;-57
2023/01/06 08:17:06;;;;;;;3.27;2.97;;;;;;;13.43;45.59;100034.72;5113366;28;20191;-57
2023/01/06 08:19:33;;;;;;;7.43;3.00;;;;;;;13.44;45.10;100033.00;5112916;28;20665;-57
2023/01/06 08:21:59;;;;;;;4.10;3.27;;;;;;;13.48;45.13;100027.94;5112947;28;20200;-57
2023/01/06 08:24:29;;;;;;;3.30;2.50;;;;;;;13.55;44.92;100037.47;5102630;28;20197;-57
2023/01/06 08:26:57;;;;;;;3.03;2.80;;;;;;;13.60;44.60;100046.13;5102215;28;20192;-56
2023/01/06 08:29:24;;;;;;;9.03;2.90;;;;;;;13.70;44.30;100057.47;5095137;28;20221;-56
2023/01/06 08:31:51;;;;;;;3.40;2.50;;;;;;;13.76;43.21;100047.19;5096037;28;20202;-56
2023/01/06 08:34:18;;;;;;;3.70;2.40;;;;;;;13.80;43.20;100045.50;5112785;28;20215;-57
2023/01/06 08:36:45;;;;;;;3.30;2.60;;;;;;;13.86;43.20;100049.06;5107529;28;20195;-57
2023/01/06 08:39:13;;;;;;;3.43;2.07;;;;;;;13.89;42.47;100053.38;5098985;28;20209;-57
2023/01/06 08:41:42;;;;;;;4.97;2.80;;;;;;;13.91;42.36;100059.44;5096182;28;20440;-57
2023/01/06 08:44:09;;;;;;;8.27;2.60;;;;;;;14.05;41.83;100050.13;5092162;28;20216;-56
2023/01/06 08:46:36;;;;;;;3.43;2.70;;;;;;;14.06;41.39;100064.78;5091855;28;20221;-57
2023/01/06 08:49:02;;;;;;;2.37;1.93;;;;;;;14.02;41.59;100057.84;5091767;28;20324;-57
2023/01/06 08:51:29;;;;;;;6.97;2.30;;;;;;;14.00;41.79;100055.25;5091723;28;20235;-56
2023/01/06 08:53:56;;;;;;;3.90;2.13;;;;;;;14.01;41.59;100046.63;5091911;28;20237;-57
2023/01/06 08:56:25;;;;;;;3.80;1.90;;;;;;;14.04;41.58;100035.47;5092149;28;20222;-56
2023/01/06 08:58:56;;;;;;;6.87;2.67;;;;;;;14.05;41.91;100030.31;5091855;28;20731;-56
2023/01/06 09:01:25;;;;;;;2.33;2.13;;;;;;;14.16;41.97;100027.84;5092550;28;20194;-56
2023/01/06 09:03:52;;;;;;;5.22;2.50;;;;;;;14.10;42.01;100039.00;5091312;28;20432;-56
2023/01/06 09:06:19;;;;;;;5.20;2.70;;;;;;;14.07;42.46;100015.69;5100871;28;20318;-58
2023/01/06 09:08:47;;;;;;;2.47;2.27;;;;;;;14.11;42.36;100020.06;5111941;28;20256;-56
2023/01/06 09:11:15;;;;;;;3.50;2.67;;;;;;;14.18;42.21;100006.34;5112075;28;20316;-56
2023/01/06 09:13:43;;;;;;;2.73;2.10;;;;;;;14.22;42.01;99996.03;5111692;28;20204;-56
2023/01/06 09:16:13;;;;;;;3.03;2.17;;;;;;;14.19;41.86;100002.91;5111934;28;20190;-57
2023/01/06 09:18:43;;;;;;;5.53;2.17;;;;;;;14.18;41.91;99997.72;5112161;28;20201;-57
2023/01/06 09:21:10;;;;;;;2.53;2.33;;;;;;;14.22;41.45;99981.41;5112308;28;20614;-57
2023/01/06 09:23:37;;;;;;;3.87;2.30;;;;;;;14.24;41.53;99977.09;5111701;28;20183;-56
2023/01/06 09:26:04;;;;;;;3.83;2.37;;;;;;;14.24;41.44;99982.25;5111963;28;20245;-57
2023/01/06 09:28:32;;;;;;;3.97;2.07;;;;;;;14.33;41.10;99990.16;5112084;28;20256;-56
2023/01/06 09:31:01;;;;;;;4.10;2.03;;;;;;;14.27;41.25;99948.69;5111811;28;20211;-57
2023/01/06 09:33:29;;;;;;;3.90;2.37;;;;;;;14.43;41.65;99975.56;5111596;28;20197;-56
2023/01/06 09:35:56;;;;;;;4.17;2.10;;;;;;;14.00;40.53;99901.94;5111828;28;20189;-58
2023/01/06 09:38:23;;;;;;;2.10;1.90;;;;;;;14.41;40.13;99965.22;5112052;28;20673;-58
2023/01/06 09:41:11;;;;;;;2.63;2.43;;;;;;;14.47;40.66;99970.47;5111818;28;20681;-57
2023/01/06 09:43:46;;;;;;;3.30;2.17;;;;;;;14.51;40.62;99966.16;5109557;28;20188;-57
2023/01/06 09:46:18;;;;;;;2.53;2.30;;;;;;;14.59;39.88;99973.13;5111796;28;20592;-56
2023/01/06 09:48:56;;;;;;;3.00;2.27;;;;;;;14.56;39.91;99946.34;5112472;28;20190;-57
2023/01/06 09:51:25;;;;;;;2.40;2.20;;;;;;;14.68;40.01;99946.47;5111269;28;20217;-56
2023/01/06 09:53:56;;;;;;;4.30;2.40;;;;;;;14.75;39.40;99936.16;5097916;28;20198;-58
2023/01/06 09:56:25;;;;;;;2.67;2.17;;;;;;;14.73;39.27;99962.88;5111722;28;20226;-57
2023/01/06 09:59:00;;;;;;;4.30;3.13;;;;;;;14.76;38.97;99937.03;5112154;28;20215;-56
2023/01/06 10:01:31;;;;;;;5.77;3.80;;;;;;;14.78;38.17;99974.13;5115234;28;20205;-56
2023/01/06 10:03:59;;;;;;;10.00;3.50;;;;;;;14.75;38.79;99936.16;5111142;28;20191;-56
2023/01/06 10:06:33;;;;;;;3.03;2.10;;;;;;;14.75;38.58;99941.34;5111404;28;20217;-57
2023/01/06 10:09:12;;;;;;;5.10;2.10;;;;;;;14.74;38.71;99934.44;5111539;28;20538;-56
2023/01/06 10:11:49;;;;;;;3.27;2.80;;;;;;;14.78;38.57;99931.00;5111152;28;20225;-57
2023/01/06 10:14:20;;;;;;;4.87;2.17;;;;;;;14.86;38.64;99932.78;5111718;28;20506;-57
2023/01/06 10:17:03;;;;;;;4.77;2.20;;;;;;;14.86;38.54;99935.38;5111932;28;20197;-56
2023/01/06 10:19:47;;;;;;;5.23;2.40;;;;;;;14.84;38.41;99947.41;5114755;28;20196;-57
2023/01/06 10:22:23;;;;;;;2.07;1.70;;;;;;;14.88;38.73;99951.78;5115118;28;20245;-56
2023/01/06 10:24:59;;;;;;;2.30;2.10;;;;;;;14.93;38.24;99944.91;5115101;28;20190;-56
2023/01/06 10:27:32;;;;;;;5.20;2.57;;;;;;;14.98;38.02;99945.78;5114935;28;20185;-56
2023/01/06 10:30:01;;;;;;;2.27;2.00;;;;;;;14.95;38.42;99938.00;5115037;28;20259;-56
2023/01/06 10:32:33;;;;;;;2.30;2.10;;;;;;;14.96;38.53;99926.81;5114716;28;20190;-57
2023/01/06 10:35:02;;;;;;;2.60;2.40;;;;;;;15.07;38.14;99941.53;5115385;28;20194;-57
2023/01/06 10:37:37;;;;;;;2.40;2.10;;;;;;;15.11;37.85;99939.81;5114641;28;20182;-56
2023/01/06 10:40:16;;;;;;;4.23;2.23;;;;;;;15.18;37.47;99939.00;5114782;28;20197;-57
2023/01/06 10:42:56;;;;;;;2.73;2.43;;;;;;;15.27;37.59;99952.84;5113441;27;20254;-56
2023/01/06 10:45:25;;;;;;;3.30;2.10;;;;;;;15.28;37.66;99939.03;5115690;27;20196;-57
2023/01/06 10:47:53;;;;;;;3.30;2.20;;;;;;;15.35;37.46;99945.13;5109944;28;20613;-57
2023/01/06 10:50:21;;;;;;;4.60;2.70;;;;;;;15.35;36.86;99934.78;5111763;28;20721;-57
2023/01/06 10:52:49;;;;;;;3.80;2.40;;;;;;;15.41;36.86;99945.13;5114279;28;20193;-57
2023/01/06 10:55:34;;;;;;;3.10;2.80;;;;;;;15.38;37.05;99952.91;5113801;28;20189;-56
2023/01/06 10:58:12;;;;;;;2.40;2.20;;;;;;;15.28;37.00;99941.63;5111994;28;20320;-57
2023/01/06 11:00:55;;;;;;;2.63;2.43;;;;;;;15.23;37.49;99926.94;5111678;28;20197;-60
2023/01/06 11:03:22;;;;;;;5.23;2.30;;;;;;;15.30;37.01;99915.72;5110566;28;20189;-56
2023/01/06 11:06:00;;;;;;;3.57;2.57;;;;;;;15.32;37.19;99911.44;5113824;28;20194;-56
2023/01/06 11:08:27;;;;;;;4.37;2.60;;;;;;;15.39;37.33;99908.00;5111509;28;20190;-58
2023/01/06 11:10:56;;;;;;;8.03;2.17;;;;;;;15.31;37.22;99909.72;5113399;28;20715;-58
2023/01/06 11:13:27;;;;;;;2.70;2.10;;;;;;;15.27;37.59;99910.56;5113151;28;20523;-56
2023/01/06 11:15:55;;;;;;;3.10;2.63;;;;;;;15.38;37.26;99908.03;5113556;28;20688;-56
2023/01/06 11:18:26;;;;;;;2.27;2.07;;;;;;;15.38;36.94;99895.06;5113341;28;20266;-58
2023/01/06 11:21:18;;;;;;;6.67;2.77;;;;;;;15.43;37.11;99903.72;5114009;28;20205;-57
2023/01/06 11:23:47;;;;;;;2.37;2.13;;;;;;;15.39;37.08;99892.47;5094039;28;20199;-57
2023/01/06 11:26:18;;;;;;;2.67;2.20;;;;;;;15.40;37.14;99883.00;5114002;28;20239;-57
2023/01/06 11:28:46;;;;;;;3.57;2.00;;;;;;;15.32;36.88;99877.78;5107121;28;20190;-57
2023/01/06 11:31:20;;;;;;;3.00;2.30;;;;;;;15.36;36.96;99885.56;5105487;28;20210;-57
2023/01/06 11:33:51;;;;;;;3.30;2.00;;;;;;;15.22;36.77;99855.31;5101657;28;20190;-57
2023/01/06 11:36:21;;;;;;;2.23;1.83;;;;;;;15.35;36.73;99875.22;5113505;28;20224;-56
2023/01/06 11:38:52;;;;;;;2.70;2.10;;;;;;;15.40;36.36;99870.91;5113108;28;20545;-57
2023/01/06 11:41:28;;;;;;;5.83;2.33;;;;;;;15.54;36.07;99887.38;5113314;28;20286;-56
2023/01/06 11:44:03;;;;;;;2.00;1.90;;;;;;;15.48;36.03;99877.00;5093356;28;20186;-56
2023/01/06 11:46:30;;;;;;;3.67;2.13;;;;;;;15.48;36.17;99881.31;5092886;28;20493;-56